SWA3131 KHOU-KRDU
Flight info
| Callsign | SWA3131 |
|---|---|
| Flight time | 2h 12m |
| Altitude | 37000 |
| Route | ELOCO6 LLA HRV Q56 CATLN MGMRY THRSR IRQ PYRES DMSTR2 |
| Aircraft | B738/M-SDE2E3FGHIRWXY/LB1 |
Departure
| Time | 2026-05-06 23:00 |
|---|---|
| Airport | William P. Hobby Airport (KHOU) |
Arrival
| Time | 2026-05-07 01:12 |
|---|---|
| Airport | Raleigh-Durham International Airport (KRDU) |
| Time | Latitude | Longitude | Altitude | Speed | Heading |
|---|---|---|---|---|---|
| 2026-05-06 22:37 | 29.65240 | -95.27705 | 50 ft | 0 kts | 333° |
| 2026-05-06 22:51 | 29.65237 | -95.27704 | 49 ft | 0 kts | 333° |
| 2026-05-06 22:51 | 29.65227 | -95.27698 | 49 ft | 2 kts | 333° |
| 2026-05-06 22:52 | 29.65214 | -95.27690 | 49 ft | 2 kts | 333° |
| 2026-05-06 22:52 | 29.65201 | -95.27683 | 49 ft | 2 kts | 333° |
| 2026-05-06 22:52 | 29.65187 | -95.27676 | 49 ft | 2 kts | 355° |
| 2026-05-06 22:52 | 29.65172 | -95.27677 | 49 ft | 2 kts | 17° |
| 2026-05-06 22:53 | 29.65159 | -95.27685 | 49 ft | 2 kts | 39° |
| 2026-05-06 22:53 | 29.65149 | -95.27698 | 49 ft | 2 kts | 62° |
| 2026-05-06 22:53 | 29.65144 | -95.27714 | 49 ft | 1 kts | 83° |
| 2026-05-06 22:53 | 29.65144 | -95.27721 | 49 ft | 1 kts | 90° |
| 2026-05-06 22:54 | 29.65144 | -95.27723 | 49 ft | 0 kts | 89° |
| 2026-05-06 22:55 | 29.65144 | -95.27718 | 49 ft | 3 kts | 89° |
| 2026-05-06 22:56 | 29.65144 | -95.27676 | 49 ft | 5 kts | 89° |
| 2026-05-06 22:56 | 29.65145 | -95.27618 | 49 ft | 9 kts | 89° |
| 2026-05-06 22:56 | 29.65146 | -95.27526 | 49 ft | 13 kts | 89° |
| 2026-05-06 22:56 | 29.65153 | -95.27422 | 48 ft | 12 kts | 74° |
| 2026-05-06 22:57 | 29.65206 | -95.27347 | 48 ft | 12 kts | 44° |
| 2026-05-06 22:57 | 29.65283 | -95.27264 | 48 ft | 15 kts | 43° |
| 2026-05-06 22:57 | 29.65358 | -95.27181 | 47 ft | 14 kts | 44° |
| 2026-05-06 22:57 | 29.65431 | -95.27101 | 47 ft | 14 kts | 44° |
| 2026-05-06 22:58 | 29.65483 | -95.27026 | 47 ft | 11 kts | 78° |
| 2026-05-06 22:58 | 29.65466 | -95.26942 | 47 ft | 10 kts | 126° |
| 2026-05-06 22:58 | 29.65406 | -95.26901 | 46 ft | 9 kts | 177° |
| 2026-05-06 22:58 | 29.65371 | -95.26921 | 46 ft | 0 kts | 223° |
| 2026-05-06 22:59 | 29.65368 | -95.26923 | 46 ft | 3 kts | 223° |
| 2026-05-06 22:59 | 29.65170 | -95.27143 | 47 ft | 77 kts | 224° |
| 2026-05-06 23:00 | 29.64611 | -95.27760 | 50 ft | 143 kts | 224° |
| 2026-05-06 23:00 | 29.63781 | -95.28690 | 338 ft | 174 kts | 224° |
| 2026-05-06 23:00 | 29.62939 | -95.29696 | 977 ft | 187 kts | 227° |
| 2026-05-06 23:00 | 29.61973 | -95.30695 | 1769 ft | 189 kts | 215° |
| 2026-05-06 23:01 | 29.60683 | -95.31179 | 2222 ft | 208 kts | 185° |
| 2026-05-06 23:01 | 29.59177 | -95.31104 | 2729 ft | 224 kts | 176° |
| 2026-05-06 23:01 | 29.57618 | -95.30738 | 3259 ft | 239 kts | 156° |
| 2026-05-06 23:01 | 29.56351 | -95.29433 | 3802 ft | 258 kts | 121° |
| 2026-05-06 23:02 | 29.55915 | -95.27408 | 4305 ft | 276 kts | 88° |
| 2026-05-06 23:02 | 29.56357 | -95.25212 | 4958 ft | 285 kts | 72° |
| 2026-05-06 23:02 | 29.56970 | -95.23065 | 5680 ft | 289 kts | 75° |
| 2026-05-06 23:02 | 29.57417 | -95.20807 | 6351 ft | 296 kts | 82° |
| 2026-05-06 23:03 | 29.57692 | -95.18468 | 7135 ft | 297 kts | 85° |
| 2026-05-06 23:03 | 29.57850 | -95.16106 | 7807 ft | 302 kts | 88° |
| 2026-05-06 23:03 | 29.57967 | -95.13682 | 8489 ft | 307 kts | 88° |
| 2026-05-06 23:03 | 29.58098 | -95.11210 | 9166 ft | 311 kts | 87° |
| 2026-05-06 23:04 | 29.58250 | -95.08735 | 9847 ft | 315 kts | 87° |
| 2026-05-06 23:04 | 29.58420 | -95.06210 | 10402 ft | 324 kts | 87° |
| 2026-05-06 23:04 | 29.58605 | -95.03559 | 10749 ft | 340 kts | 87° |
| 2026-05-06 23:04 | 29.58956 | -95.00808 | 11090 ft | 357 kts | 79° |
| 2026-05-06 23:05 | 29.59598 | -94.98023 | 11399 ft | 373 kts | 74° |
| 2026-05-06 23:05 | 29.60421 | -94.95102 | 11696 ft | 390 kts | 72° |
| 2026-05-06 23:05 | 29.61308 | -94.92110 | 11907 ft | 406 kts | 72° |
| 2026-05-06 23:05 | 29.62227 | -94.88988 | 12227 ft | 418 kts | 72° |
| 2026-05-06 23:06 | 29.63158 | -94.85750 | 12748 ft | 424 kts | 73° |
| 2026-05-06 23:06 | 29.64134 | -94.82542 | 13278 ft | 429 kts | 71° |
| 2026-05-06 23:06 | 29.65212 | -94.79334 | 13847 ft | 434 kts | 69° |
| 2026-05-06 23:06 | 29.66381 | -94.76082 | 14383 ft | 440 kts | 68° |
| 2026-05-06 23:07 | 29.67568 | -94.72863 | 14962 ft | 445 kts | 68° |
| 2026-05-06 23:07 | 29.68778 | -94.69592 | 15550 ft | 449 kts | 68° |
| 2026-05-06 23:07 | 29.69999 | -94.66273 | 16135 ft | 454 kts | 68° |
| 2026-05-06 23:07 | 29.71223 | -94.62915 | 16674 ft | 459 kts | 68° |
| 2026-05-06 23:08 | 29.72460 | -94.59457 | 17236 ft | 464 kts | 69° |
| 2026-05-06 23:08 | 29.73442 | -94.55977 | 17808 ft | 467 kts | 77° |
| 2026-05-06 23:08 | 29.73945 | -94.52293 | 18325 ft | 469 kts | 89° |
| 2026-05-06 23:08 | 29.73876 | -94.48563 | 18894 ft | 469 kts | 97° |
| 2026-05-06 23:09 | 29.73549 | -94.44796 | 19433 ft | 472 kts | 101° |
| 2026-05-06 23:09 | 29.73120 | -94.41093 | 20001 ft | 474 kts | 102° |
| 2026-05-06 23:09 | 29.72634 | -94.37292 | 20491 ft | 479 kts | 102° |
| 2026-05-06 23:09 | 29.72135 | -94.33509 | 21018 ft | 483 kts | 103° |
| 2026-05-06 23:10 | 29.71646 | -94.29701 | 21505 ft | 487 kts | 102° |
| 2026-05-06 23:10 | 29.71173 | -94.25819 | 22063 ft | 490 kts | 102° |
| 2026-05-06 23:10 | 29.70713 | -94.21908 | 22535 ft | 494 kts | 102° |
| 2026-05-06 23:10 | 29.70263 | -94.18003 | 22966 ft | 499 kts | 102° |
| 2026-05-06 23:11 | 29.69811 | -94.14030 | 23388 ft | 504 kts | 102° |
| 2026-05-06 23:11 | 29.69356 | -94.10011 | 23793 ft | 509 kts | 102° |
| 2026-05-06 23:11 | 29.68908 | -94.06009 | 24255 ft | 513 kts | 102° |
| 2026-05-06 23:11 | 29.68553 | -94.01913 | 24674 ft | 519 kts | 98° |
| 2026-05-06 23:12 | 29.68373 | -93.97752 | 25062 ft | 525 kts | 95° |
| 2026-05-06 23:12 | 29.68311 | -93.93525 | 25468 ft | 529 kts | 94° |
| 2026-05-06 23:12 | 29.68312 | -93.89343 | 25852 ft | 533 kts | 93° |
| 2026-05-06 23:12 | 29.68337 | -93.85052 | 26209 ft | 538 kts | 93° |
| 2026-05-06 23:13 | 29.68360 | -93.80771 | 26635 ft | 541 kts | 93° |
| 2026-05-06 23:13 | 29.68369 | -93.76419 | 27026 ft | 544 kts | 93° |
| 2026-05-06 23:13 | 29.68362 | -93.72097 | 27623 ft | 542 kts | 93° |
| 2026-05-06 23:13 | 29.68342 | -93.67780 | 28092 ft | 542 kts | 93° |
| 2026-05-06 23:14 | 29.68309 | -93.63437 | 28571 ft | 543 kts | 94° |
| 2026-05-06 23:14 | 29.68268 | -93.59136 | 28991 ft | 544 kts | 94° |
| 2026-05-06 23:14 | 29.68221 | -93.54807 | 29500 ft | 544 kts | 94° |
| 2026-05-06 23:14 | 29.68170 | -93.50481 | 30021 ft | 543 kts | 93° |
| 2026-05-06 23:15 | 29.68116 | -93.46119 | 30521 ft | 542 kts | 93° |
| 2026-05-06 23:15 | 29.68062 | -93.41804 | 31028 ft | 540 kts | 93° |
| 2026-05-06 23:15 | 29.68008 | -93.37512 | 31536 ft | 539 kts | 93° |
| 2026-05-06 23:15 | 29.67952 | -93.33212 | 31973 ft | 538 kts | 93° |
| 2026-05-06 23:16 | 29.67893 | -93.28919 | 32333 ft | 539 kts | 93° |
| 2026-05-06 23:16 | 29.67834 | -93.24645 | 32772 ft | 538 kts | 93° |
| 2026-05-06 23:16 | 29.67773 | -93.20346 | 33253 ft | 536 kts | 93° |
| 2026-05-06 23:16 | 29.67711 | -93.16081 | 33732 ft | 535 kts | 93° |
| 2026-05-06 23:17 | 29.67649 | -93.11858 | 34249 ft | 532 kts | 93° |
| 2026-05-06 23:17 | 29.67586 | -93.07622 | 34715 ft | 531 kts | 94° |
| 2026-05-06 23:17 | 29.67521 | -93.03400 | 35223 ft | 528 kts | 93° |
| 2026-05-06 23:17 | 29.67454 | -92.99160 | 35658 ft | 527 kts | 94° |
| 2026-05-06 23:18 | 29.67388 | -92.94949 | 36021 ft | 527 kts | 94° |
| 2026-05-06 23:18 | 29.67319 | -92.90726 | 36398 ft | 527 kts | 94° |
| 2026-05-06 23:18 | 29.67249 | -92.86499 | 36793 ft | 526 kts | 94° |
| 2026-05-06 23:19 | 29.67105 | -92.78039 | 36884 ft | 527 kts | 94° |
| 2026-05-06 23:19 | 29.66960 | -92.69685 | 36887 ft | 524 kts | 94° |
| 2026-05-06 23:20 | 29.66806 | -92.61314 | 36888 ft | 525 kts | 94° |
| 2026-05-06 23:20 | 29.66650 | -92.52891 | 36890 ft | 525 kts | 94° |
| 2026-05-06 23:21 | 29.66489 | -92.44572 | 36893 ft | 525 kts | 94° |
| 2026-05-06 23:21 | 29.66430 | -92.36173 | 36894 ft | 525 kts | 90° |
| 2026-05-06 23:22 | 29.66949 | -92.27821 | 36897 ft | 525 kts | 86° |
| 2026-05-06 23:22 | 29.67745 | -92.19445 | 36902 ft | 527 kts | 85° |
| 2026-05-06 23:23 | 29.68563 | -92.11093 | 36898 ft | 526 kts | 85° |
| 2026-05-06 23:23 | 29.69329 | -92.02753 | 36891 ft | 528 kts | 85° |
| 2026-05-06 23:24 | 29.70058 | -91.94417 | 36893 ft | 525 kts | 86° |
| 2026-05-06 23:24 | 29.70766 | -91.86049 | 36895 ft | 526 kts | 85° |
| 2026-05-06 23:25 | 29.71466 | -91.77669 | 36892 ft | 526 kts | 85° |
| 2026-05-06 23:25 | 29.72157 | -91.69340 | 36898 ft | 526 kts | 86° |
| 2026-05-06 23:26 | 29.72846 | -91.60972 | 36897 ft | 526 kts | 86° |
| 2026-05-06 23:26 | 29.73527 | -91.52628 | 36905 ft | 527 kts | 85° |
| 2026-05-06 23:27 | 29.74203 | -91.44272 | 36911 ft | 526 kts | 85° |
| 2026-05-06 23:27 | 29.74877 | -91.35892 | 36910 ft | 526 kts | 85° |
| 2026-05-06 23:28 | 29.75543 | -91.27549 | 36914 ft | 525 kts | 86° |
| 2026-05-06 23:28 | 29.76205 | -91.19188 | 36915 ft | 524 kts | 86° |
| 2026-05-06 23:29 | 29.76861 | -91.10834 | 36908 ft | 525 kts | 86° |
| 2026-05-06 23:29 | 29.77509 | -91.02511 | 36910 ft | 525 kts | 86° |
| 2026-05-06 23:30 | 29.78158 | -90.94132 | 36914 ft | 525 kts | 86° |
| 2026-05-06 23:30 | 29.78802 | -90.85741 | 36912 ft | 528 kts | 86° |
| 2026-05-06 23:31 | 29.79441 | -90.77347 | 36916 ft | 527 kts | 86° |
| 2026-05-06 23:31 | 29.80075 | -90.68925 | 36923 ft | 526 kts | 85° |
| 2026-05-06 23:32 | 29.80697 | -90.60586 | 36917 ft | 527 kts | 86° |
| 2026-05-06 23:32 | 29.81322 | -90.52158 | 36915 ft | 526 kts | 85° |
| 2026-05-06 23:33 | 29.81938 | -90.43790 | 36916 ft | 526 kts | 86° |
| 2026-05-06 23:33 | 29.82544 | -90.35389 | 36924 ft | 527 kts | 86° |
| 2026-05-06 23:34 | 29.83131 | -90.27059 | 36927 ft | 525 kts | 86° |
| 2026-05-06 23:34 | 29.83732 | -90.18707 | 36929 ft | 527 kts | 86° |
| 2026-05-06 23:35 | 29.84337 | -90.10299 | 36928 ft | 526 kts | 85° |
| 2026-05-06 23:35 | 29.85419 | -90.02020 | 36928 ft | 526 kts | 74° |
| 2026-05-06 23:36 | 29.88229 | -89.94289 | 36934 ft | 524 kts | 58° |
| 2026-05-06 23:36 | 29.91921 | -89.87085 | 36936 ft | 519 kts | 54° |
| 2026-05-06 23:37 | 29.95802 | -89.80135 | 36933 ft | 520 kts | 53° |
| 2026-05-06 23:37 | 29.99717 | -89.73136 | 36933 ft | 520 kts | 53° |
| 2026-05-06 23:38 | 30.03581 | -89.66103 | 36933 ft | 519 kts | 54° |
| 2026-05-06 23:38 | 30.07406 | -89.59046 | 36930 ft | 520 kts | 54° |
| 2026-05-06 23:39 | 30.11212 | -89.51971 | 36936 ft | 519 kts | 54° |
| 2026-05-06 23:39 | 30.15013 | -89.44883 | 36935 ft | 520 kts | 54° |
| 2026-05-06 23:40 | 30.18813 | -89.37789 | 36933 ft | 520 kts | 54° |
| 2026-05-06 23:40 | 30.22613 | -89.30680 | 36933 ft | 519 kts | 54° |
| 2026-05-06 23:41 | 30.26407 | -89.23576 | 36936 ft | 520 kts | 54° |
| 2026-05-06 23:41 | 30.30189 | -89.16477 | 36939 ft | 520 kts | 54° |
| 2026-05-06 23:42 | 30.33960 | -89.09389 | 36937 ft | 519 kts | 54° |
| 2026-05-06 23:42 | 30.37747 | -89.02258 | 36936 ft | 519 kts | 54° |
| 2026-05-06 23:43 | 30.41538 | -88.95113 | 36931 ft | 522 kts | 54° |
| 2026-05-06 23:43 | 30.45308 | -88.87988 | 36934 ft | 519 kts | 54° |
| 2026-05-06 23:44 | 30.49081 | -88.80847 | 36936 ft | 520 kts | 54° |
| 2026-05-06 23:44 | 30.52852 | -88.73698 | 36939 ft | 521 kts | 54° |
| 2026-05-06 23:45 | 30.56608 | -88.66562 | 36936 ft | 521 kts | 54° |
| 2026-05-06 23:45 | 30.60379 | -88.59383 | 36938 ft | 521 kts | 54° |
| 2026-05-06 23:46 | 30.64157 | -88.52181 | 36945 ft | 521 kts | 54° |
| 2026-05-06 23:46 | 30.67895 | -88.45042 | 36945 ft | 521 kts | 54° |
| 2026-05-06 23:47 | 30.71734 | -88.37864 | 36953 ft | 519 kts | 50° |
| 2026-05-06 23:47 | 30.76083 | -88.31188 | 36950 ft | 515 kts | 45° |
| 2026-05-06 23:48 | 30.80738 | -88.24910 | 36959 ft | 514 kts | 43° |
| 2026-05-06 23:48 | 30.85474 | -88.18717 | 36955 ft | 510 kts | 42° |
| 2026-05-06 23:49 | 30.90189 | -88.12528 | 36954 ft | 513 kts | 42° |
| 2026-05-06 23:49 | 30.94907 | -88.06274 | 36954 ft | 512 kts | 43° |
| 2026-05-06 23:50 | 30.99547 | -88.00079 | 36947 ft | 511 kts | 43° |
| 2026-05-06 23:50 | 31.06592 | -87.90638 | 36947 ft | 512 kts | 43° |
| 2026-05-06 23:51 | 31.11243 | -87.84383 | 36950 ft | 512 kts | 43° |
| 2026-05-06 23:51 | 31.15936 | -87.78065 | 36951 ft | 514 kts | 43° |
| 2026-05-06 23:52 | 31.20569 | -87.71812 | 36947 ft | 511 kts | 42° |
| 2026-05-06 23:52 | 31.25213 | -87.65539 | 36950 ft | 511 kts | 42° |
| 2026-05-06 23:53 | 31.29845 | -87.59274 | 36951 ft | 510 kts | 42° |
| 2026-05-06 23:53 | 31.34496 | -87.52974 | 36951 ft | 511 kts | 42° |
| 2026-05-06 23:54 | 31.39103 | -87.46722 | 36951 ft | 510 kts | 42° |
| 2026-05-06 23:54 | 31.43724 | -87.40438 | 36947 ft | 508 kts | 42° |
| 2026-05-06 23:55 | 31.48363 | -87.34119 | 36948 ft | 507 kts | 43° |
| 2026-05-06 23:55 | 31.52944 | -87.27876 | 36945 ft | 509 kts | 43° |
| 2026-05-06 23:56 | 31.57569 | -87.21558 | 36948 ft | 506 kts | 43° |
| 2026-05-06 23:56 | 31.62106 | -87.15344 | 36952 ft | 506 kts | 43° |
| 2026-05-06 23:57 | 31.66692 | -87.09064 | 36945 ft | 506 kts | 43° |
| 2026-05-06 23:57 | 31.71291 | -87.02755 | 36949 ft | 506 kts | 43° |
| 2026-05-06 23:58 | 31.75817 | -86.96535 | 36954 ft | 506 kts | 43° |
| 2026-05-06 23:58 | 31.80379 | -86.90255 | 37009 ft | 508 kts | 43° |
| 2026-05-06 23:59 | 31.82693 | -86.87064 | 37220 ft | 510 kts | 43° |
| 2026-05-06 23:59 | 31.84990 | -86.83888 | 37689 ft | 506 kts | 43° |
| 2026-05-06 23:59 | 31.87222 | -86.80795 | 38125 ft | 502 kts | 43° |
| 2026-05-06 23:59 | 31.89499 | -86.77639 | 38447 ft | 501 kts | 43° |
| 2026-05-07 00:00 | 31.91750 | -86.74520 | 38695 ft | 502 kts | 43° |
| 2026-05-07 00:00 | 31.94012 | -86.71387 | 38947 ft | 503 kts | 43° |
| 2026-05-07 00:00 | 31.98570 | -86.65076 | 38931 ft | 503 kts | 43° |
| 2026-05-07 00:01 | 32.03077 | -86.58816 | 38934 ft | 499 kts | 43° |
| 2026-05-07 00:01 | 32.07577 | -86.52570 | 38929 ft | 500 kts | 43° |
| 2026-05-07 00:02 | 32.12088 | -86.46291 | 38922 ft | 501 kts | 43° |
| 2026-05-07 00:02 | 32.16599 | -86.39997 | 38936 ft | 503 kts | 43° |
| 2026-05-07 00:03 | 32.21133 | -86.33650 | 38939 ft | 506 kts | 44° |
| 2026-05-07 00:03 | 32.25629 | -86.27456 | 38942 ft | 505 kts | 42° |
| 2026-05-07 00:04 | 32.30362 | -86.21265 | 38933 ft | 506 kts | 41° |
| 2026-05-07 00:04 | 32.35111 | -86.15120 | 38937 ft | 507 kts | 42° |
| 2026-05-07 00:05 | 32.39864 | -86.08953 | 38944 ft | 508 kts | 41° |
| 2026-05-07 00:05 | 32.44616 | -86.02739 | 38937 ft | 508 kts | 42° |
| 2026-05-07 00:06 | 32.49310 | -85.96562 | 38941 ft | 508 kts | 42° |
| 2026-05-07 00:06 | 32.54055 | -85.90303 | 38931 ft | 509 kts | 42° |
| 2026-05-07 00:07 | 32.58756 | -85.84085 | 38946 ft | 507 kts | 42° |
| 2026-05-07 00:07 | 32.63464 | -85.77851 | 38939 ft | 508 kts | 42° |
| 2026-05-07 00:08 | 32.68167 | -85.71616 | 38937 ft | 506 kts | 42° |
| 2026-05-07 00:08 | 32.72870 | -85.65376 | 38943 ft | 508 kts | 42° |
| 2026-05-07 00:09 | 32.77571 | -85.59117 | 38945 ft | 508 kts | 42° |
| 2026-05-07 00:09 | 32.82271 | -85.52850 | 38955 ft | 507 kts | 42° |
| 2026-05-07 00:10 | 32.86985 | -85.46550 | 38946 ft | 510 kts | 42° |
| 2026-05-07 00:10 | 32.91677 | -85.40273 | 38945 ft | 508 kts | 42° |
| 2026-05-07 00:11 | 32.96390 | -85.33958 | 38942 ft | 508 kts | 43° |
| 2026-05-07 00:11 | 33.01073 | -85.27671 | 38936 ft | 512 kts | 43° |
| 2026-05-07 00:12 | 33.05787 | -85.21322 | 38944 ft | 508 kts | 42° |
| 2026-05-07 00:12 | 33.10434 | -85.15054 | 38946 ft | 508 kts | 42° |
| 2026-05-07 00:13 | 33.15167 | -85.08674 | 38949 ft | 512 kts | 41° |
| 2026-05-07 00:13 | 33.19862 | -85.02330 | 38945 ft | 511 kts | 42° |
| 2026-05-07 00:14 | 33.24566 | -84.95963 | 38948 ft | 515 kts | 42° |
| 2026-05-07 00:14 | 33.29327 | -84.89509 | 38956 ft | 520 kts | 41° |
| 2026-05-07 00:15 | 33.34041 | -84.83095 | 38963 ft | 514 kts | 41° |
| 2026-05-07 00:15 | 33.38815 | -84.76601 | 38963 ft | 519 kts | 41° |
| 2026-05-07 00:16 | 33.43518 | -84.70181 | 38965 ft | 515 kts | 41° |
| 2026-05-07 00:16 | 33.48248 | -84.63714 | 38966 ft | 517 kts | 41° |
| 2026-05-07 00:17 | 33.53005 | -84.57207 | 38966 ft | 518 kts | 40° |
| 2026-05-07 00:17 | 33.57669 | -84.50600 | 38965 ft | 524 kts | 46° |
| 2026-05-07 00:18 | 33.61328 | -84.42910 | 38969 ft | 538 kts | 64° |
| 2026-05-07 00:18 | 33.63219 | -84.34203 | 38971 ft | 547 kts | 79° |
| 2026-05-07 00:19 | 33.63961 | -84.25068 | 38973 ft | 550 kts | 85° |
| 2026-05-07 00:19 | 33.64298 | -84.15958 | 38969 ft | 548 kts | 87° |
| 2026-05-07 00:20 | 33.64576 | -84.06786 | 38967 ft | 551 kts | 86° |
| 2026-05-07 00:20 | 33.64876 | -83.97628 | 38967 ft | 549 kts | 87° |
| 2026-05-07 00:21 | 33.65210 | -83.88467 | 38964 ft | 551 kts | 85° |
| 2026-05-07 00:21 | 33.65557 | -83.79355 | 38965 ft | 547 kts | 85° |
| 2026-05-07 00:22 | 33.65908 | -83.70209 | 38962 ft | 550 kts | 85° |
| 2026-05-07 00:22 | 33.66254 | -83.61092 | 38956 ft | 547 kts | 85° |
| 2026-05-07 00:23 | 33.66596 | -83.51974 | 38958 ft | 547 kts | 85° |
| 2026-05-07 00:23 | 33.66931 | -83.42873 | 38955 ft | 549 kts | 86° |
| 2026-05-07 00:24 | 33.67249 | -83.33738 | 38955 ft | 547 kts | 86° |
| 2026-05-07 00:24 | 33.67561 | -83.24619 | 38965 ft | 547 kts | 86° |
| 2026-05-07 00:25 | 33.67867 | -83.15506 | 38903 ft | 551 kts | 86° |
| 2026-05-07 00:25 | 33.68020 | -83.10894 | 38605 ft | 546 kts | 86° |
| 2026-05-07 00:25 | 33.68168 | -83.06390 | 38315 ft | 537 kts | 86° |
| 2026-05-07 00:26 | 33.68308 | -83.01932 | 37675 ft | 538 kts | 86° |
| 2026-05-07 00:26 | 33.68447 | -82.97456 | 36961 ft | 538 kts | 86° |
| 2026-05-07 00:26 | 33.68590 | -82.92985 | 36246 ft | 538 kts | 86° |
| 2026-05-07 00:26 | 33.68734 | -82.88537 | 35542 ft | 537 kts | 86° |
| 2026-05-07 00:27 | 33.68877 | -82.84057 | 35042 ft | 531 kts | 86° |
| 2026-05-07 00:27 | 33.69008 | -82.79663 | 34959 ft | 525 kts | 86° |
| 2026-05-07 00:27 | 33.69271 | -82.70825 | 34962 ft | 535 kts | 87° |
| 2026-05-07 00:28 | 33.69526 | -82.61873 | 34961 ft | 532 kts | 86° |
| 2026-05-07 00:28 | 33.69768 | -82.53046 | 34962 ft | 534 kts | 86° |
| 2026-05-07 00:29 | 33.70020 | -82.44165 | 34960 ft | 531 kts | 86° |
| 2026-05-07 00:30 | 33.70385 | -82.30780 | 33829 ft | 530 kts | 86° |
| 2026-05-07 00:30 | 33.70499 | -82.26398 | 33387 ft | 526 kts | 87° |
| 2026-05-07 00:30 | 33.70657 | -82.22047 | 33002 ft | 525 kts | 85° |
| 2026-05-07 00:30 | 33.70956 | -82.17722 | 32945 ft | 522 kts | 81° |
| 2026-05-07 00:31 | 33.72388 | -82.09141 | 32951 ft | 525 kts | 72° |
| 2026-05-07 00:31 | 33.74419 | -82.00771 | 32946 ft | 524 kts | 69° |
| 2026-05-07 00:32 | 33.76619 | -81.92429 | 32934 ft | 523 kts | 68° |
| 2026-05-07 00:32 | 33.78803 | -81.84098 | 32948 ft | 522 kts | 69° |
| 2026-05-07 00:33 | 33.80920 | -81.75808 | 32962 ft | 522 kts | 69° |
| 2026-05-07 00:33 | 33.83018 | -81.67474 | 32958 ft | 522 kts | 69° |
| 2026-05-07 00:34 | 33.85159 | -81.59126 | 32960 ft | 522 kts | 68° |
| 2026-05-07 00:34 | 33.87886 | -81.51131 | 32952 ft | 512 kts | 57° |
| 2026-05-07 00:35 | 33.91384 | -81.43639 | 32951 ft | 513 kts | 53° |
| 2026-05-07 00:35 | 33.95127 | -81.36361 | 32948 ft | 509 kts | 52° |
| 2026-05-07 00:36 | 33.98866 | -81.29117 | 32952 ft | 510 kts | 52° |
| 2026-05-07 00:36 | 34.02573 | -81.21822 | 32952 ft | 513 kts | 53° |
| 2026-05-07 00:37 | 34.06254 | -81.14485 | 32941 ft | 511 kts | 53° |
| 2026-05-07 00:37 | 34.09889 | -81.07177 | 32949 ft | 510 kts | 53° |
| 2026-05-07 00:38 | 34.13526 | -80.99824 | 32947 ft | 507 kts | 54° |
| 2026-05-07 00:38 | 34.17148 | -80.92499 | 32838 ft | 507 kts | 54° |
| 2026-05-07 00:39 | 34.20737 | -80.85220 | 32444 ft | 501 kts | 54° |
| 2026-05-07 00:39 | 34.22507 | -80.81619 | 31786 ft | 500 kts | 54° |
| 2026-05-07 00:39 | 34.24302 | -80.77971 | 30906 ft | 504 kts | 54° |
| 2026-05-07 00:40 | 34.26077 | -80.74371 | 29983 ft | 509 kts | 53° |
| 2026-05-07 00:40 | 34.27911 | -80.70646 | 29174 ft | 510 kts | 54° |
| 2026-05-07 00:40 | 34.29694 | -80.67012 | 28550 ft | 506 kts | 53° |
| 2026-05-07 00:40 | 34.31485 | -80.63357 | 27922 ft | 506 kts | 54° |
| 2026-05-07 00:41 | 34.33269 | -80.59718 | 27300 ft | 505 kts | 54° |
| 2026-05-07 00:41 | 34.35081 | -80.56020 | 26664 ft | 504 kts | 54° |
| 2026-05-07 00:41 | 34.36839 | -80.52422 | 26045 ft | 504 kts | 54° |
| 2026-05-07 00:41 | 34.38618 | -80.48780 | 25425 ft | 508 kts | 54° |
| 2026-05-07 00:42 | 34.40408 | -80.45113 | 24802 ft | 506 kts | 54° |
| 2026-05-07 00:42 | 34.42205 | -80.41421 | 24195 ft | 502 kts | 55° |
| 2026-05-07 00:42 | 34.43936 | -80.37855 | 23941 ft | 492 kts | 55° |
| 2026-05-07 00:42 | 34.45637 | -80.34338 | 23935 ft | 475 kts | 56° |
| 2026-05-07 00:43 | 34.47277 | -80.30936 | 23943 ft | 456 kts | 55° |
| 2026-05-07 00:43 | 34.48865 | -80.27649 | 23942 ft | 447 kts | 55° |
| 2026-05-07 00:43 | 34.50423 | -80.24439 | 23945 ft | 447 kts | 54° |
| 2026-05-07 00:43 | 34.51994 | -80.21205 | 23948 ft | 446 kts | 55° |
| 2026-05-07 00:44 | 34.53582 | -80.17934 | 23949 ft | 448 kts | 55° |
| 2026-05-07 00:44 | 34.55143 | -80.14716 | 23950 ft | 447 kts | 55° |
| 2026-05-07 00:44 | 34.56723 | -80.11455 | 23952 ft | 446 kts | 55° |
| 2026-05-07 00:44 | 34.58294 | -80.08206 | 23953 ft | 449 kts | 56° |
| 2026-05-07 00:45 | 34.59862 | -80.04949 | 23952 ft | 448 kts | 55° |
| 2026-05-07 00:45 | 34.61442 | -80.01668 | 23953 ft | 446 kts | 55° |
| 2026-05-07 00:45 | 34.63010 | -79.98415 | 23952 ft | 447 kts | 55° |
| 2026-05-07 00:45 | 34.64571 | -79.95174 | 23950 ft | 447 kts | 55° |
| 2026-05-07 00:46 | 34.66159 | -79.91901 | 23952 ft | 448 kts | 54° |
| 2026-05-07 00:46 | 34.67830 | -79.88769 | 23950 ft | 442 kts | 49° |
| 2026-05-07 00:46 | 34.69809 | -79.85928 | 23950 ft | 434 kts | 39° |
| 2026-05-07 00:46 | 34.72061 | -79.83547 | 23953 ft | 430 kts | 32° |
| 2026-05-07 00:47 | 34.74441 | -79.81384 | 23950 ft | 425 kts | 29° |
| 2026-05-07 00:47 | 34.76850 | -79.79328 | 23948 ft | 422 kts | 27° |
| 2026-05-07 00:47 | 34.79261 | -79.77316 | 23872 ft | 417 kts | 27° |
| 2026-05-07 00:47 | 34.81650 | -79.75309 | 23341 ft | 416 kts | 28° |
| 2026-05-07 00:48 | 34.84010 | -79.73292 | 22690 ft | 416 kts | 29° |
| 2026-05-07 00:48 | 34.86348 | -79.71266 | 22124 ft | 414 kts | 30° |
| 2026-05-07 00:48 | 34.88685 | -79.69218 | 21652 ft | 409 kts | 30° |
| 2026-05-07 00:48 | 34.90975 | -79.67197 | 21135 ft | 406 kts | 29° |
| 2026-05-07 00:49 | 34.93269 | -79.65166 | 20695 ft | 403 kts | 30° |
| 2026-05-07 00:49 | 34.95513 | -79.63180 | 20450 ft | 402 kts | 29° |
| 2026-05-07 00:49 | 34.97798 | -79.61155 | 20206 ft | 404 kts | 29° |
| 2026-05-07 00:49 | 35.00057 | -79.59149 | 19962 ft | 399 kts | 29° |
| 2026-05-07 00:50 | 35.02291 | -79.57162 | 19718 ft | 396 kts | 28° |
| 2026-05-07 00:50 | 35.04539 | -79.55167 | 19475 ft | 402 kts | 29° |
| 2026-05-07 00:50 | 35.06804 | -79.53154 | 19230 ft | 397 kts | 29° |
| 2026-05-07 00:50 | 35.09048 | -79.51212 | 18984 ft | 390 kts | 26° |
| 2026-05-07 00:51 | 35.11378 | -79.49583 | 18742 ft | 388 kts | 16° |
| 2026-05-07 00:51 | 35.13923 | -79.48616 | 18497 ft | 371 kts | 3° |
| 2026-05-07 00:51 | 35.16421 | -79.48164 | 18259 ft | 364 kts | 358° |
| 2026-05-07 00:51 | 35.18944 | -79.47865 | 18013 ft | 362 kts | 356° |
| 2026-05-07 00:52 | 35.21457 | -79.47597 | 17768 ft | 361 kts | 356° |
| 2026-05-07 00:52 | 35.23978 | -79.47311 | 17524 ft | 361 kts | 356° |
| 2026-05-07 00:52 | 35.26467 | -79.47008 | 17281 ft | 360 kts | 357° |
| 2026-05-07 00:52 | 35.28957 | -79.46692 | 17048 ft | 360 kts | 358° |
| 2026-05-07 00:53 | 35.31491 | -79.46353 | 16815 ft | 364 kts | 359° |
| 2026-05-07 00:53 | 35.33980 | -79.45773 | 16608 ft | 368 kts | 7° |
| 2026-05-07 00:53 | 35.36365 | -79.44560 | 16375 ft | 381 kts | 22° |
| 2026-05-07 00:53 | 35.38581 | -79.42687 | 16148 ft | 386 kts | 31° |
| 2026-05-07 00:54 | 35.40648 | -79.40636 | 15914 ft | 385 kts | 33° |
| 2026-05-07 00:54 | 35.42696 | -79.38515 | 15674 ft | 386 kts | 34° |
| 2026-05-07 00:54 | 35.44739 | -79.36387 | 15427 ft | 385 kts | 34° |
| 2026-05-07 00:54 | 35.46799 | -79.34257 | 15194 ft | 386 kts | 34° |
| 2026-05-07 00:55 | 35.48864 | -79.32138 | 14952 ft | 381 kts | 34° |
| 2026-05-07 00:55 | 35.50896 | -79.30066 | 14714 ft | 382 kts | 34° |
| 2026-05-07 00:55 | 35.52931 | -79.27999 | 14436 ft | 374 kts | 34° |
| 2026-05-07 00:55 | 35.54932 | -79.25969 | 14024 ft | 373 kts | 34° |
| 2026-05-07 00:56 | 35.56947 | -79.23937 | 13535 ft | 379 kts | 34° |
| 2026-05-07 00:56 | 35.58967 | -79.21898 | 13032 ft | 378 kts | 34° |
| 2026-05-07 00:56 | 35.60988 | -79.19852 | 12528 ft | 375 kts | 34° |
| 2026-05-07 00:56 | 35.62952 | -79.17765 | 12057 ft | 374 kts | 40° |
| 2026-05-07 00:57 | 35.64692 | -79.15386 | 11624 ft | 373 kts | 47° |
| 2026-05-07 00:57 | 35.66273 | -79.12845 | 11064 ft | 373 kts | 50° |
| 2026-05-07 00:57 | 35.67778 | -79.10258 | 10573 ft | 370 kts | 51° |
| 2026-05-07 00:57 | 35.69228 | -79.07728 | 10298 ft | 361 kts | 52° |
| 2026-05-07 00:58 | 35.70655 | -79.05254 | 10188 ft | 346 kts | 51° |
| 2026-05-07 00:58 | 35.72041 | -79.02872 | 10056 ft | 334 kts | 50° |
| 2026-05-07 00:58 | 35.73389 | -79.00583 | 9689 ft | 331 kts | 50° |
| 2026-05-07 00:58 | 35.74740 | -78.98315 | 9239 ft | 328 kts | 50° |
| 2026-05-07 00:59 | 35.77397 | -78.93864 | 8465 ft | 315 kts | 50° |
| 2026-05-07 00:59 | 35.78611 | -78.91663 | 8076 ft | 313 kts | 58° |
| 2026-05-07 00:59 | 35.79401 | -78.89238 | 7952 ft | 303 kts | 77° |
| 2026-05-07 01:00 | 35.79720 | -78.86632 | 7915 ft | 305 kts | 84° |
| 2026-05-07 01:00 | 35.79905 | -78.84076 | 7636 ft | 300 kts | 85° |
| 2026-05-07 01:00 | 35.80088 | -78.81522 | 7342 ft | 293 kts | 85° |
| 2026-05-07 01:00 | 35.80292 | -78.79082 | 7245 ft | 279 kts | 84° |
| 2026-05-07 01:01 | 35.80506 | -78.76756 | 7034 ft | 274 kts | 83° |
| 2026-05-07 01:01 | 35.80734 | -78.74412 | 6668 ft | 276 kts | 82° |
| 2026-05-07 01:01 | 35.81141 | -78.72117 | 6333 ft | 277 kts | 68° |
| 2026-05-07 01:01 | 35.82148 | -78.70114 | 6038 ft | 271 kts | 44° |
| 2026-05-07 01:02 | 35.83504 | -78.68542 | 5968 ft | 259 kts | 37° |
| 2026-05-07 01:02 | 35.84827 | -78.67110 | 5970 ft | 255 kts | 37° |
| 2026-05-07 01:02 | 35.86152 | -78.65609 | 5962 ft | 257 kts | 39° |
| 2026-05-07 01:02 | 35.87467 | -78.64048 | 5596 ft | 266 kts | 41° |
| 2026-05-07 01:03 | 35.88797 | -78.62438 | 5151 ft | 272 kts | 41° |
| 2026-05-07 01:03 | 35.90158 | -78.60780 | 4718 ft | 276 kts | 41° |
| 2026-05-07 01:03 | 35.91517 | -78.59121 | 4332 ft | 276 kts | 42° |
| 2026-05-07 01:03 | 35.92868 | -78.57473 | 4045 ft | 269 kts | 42° |
| 2026-05-07 01:04 | 35.94156 | -78.55904 | 3964 ft | 253 kts | 42° |
| 2026-05-07 01:04 | 35.95402 | -78.54387 | 3978 ft | 251 kts | 43° |
| 2026-05-07 01:04 | 35.96652 | -78.52871 | 3977 ft | 250 kts | 42° |
| 2026-05-07 01:04 | 35.97929 | -78.51424 | 3973 ft | 248 kts | 30° |
| 2026-05-07 01:05 | 35.99458 | -78.50700 | 3981 ft | 227 kts | 359° |
| 2026-05-07 01:05 | 36.00926 | -78.51046 | 3972 ft | 213 kts | 324° |
| 2026-05-07 01:05 | 36.02014 | -78.52209 | 3968 ft | 203 kts | 304° |
| 2026-05-07 01:05 | 36.02858 | -78.53596 | 3969 ft | 198 kts | 294° |
| 2026-05-07 01:06 | 36.03464 | -78.55090 | 3966 ft | 191 kts | 289° |
| 2026-05-07 01:06 | 36.04040 | -78.56548 | 3969 ft | 187 kts | 290° |
| 2026-05-07 01:06 | 36.04328 | -78.58043 | 3966 ft | 178 kts | 262° |
| 2026-05-07 01:06 | 36.03820 | -78.59395 | 3966 ft | 176 kts | 225° |
| 2026-05-07 01:07 | 36.02725 | -78.60156 | 3970 ft | 183 kts | 209° |
| 2026-05-07 01:07 | 36.01711 | -78.60981 | 3962 ft | 167 kts | 225° |
| 2026-05-07 01:07 | 36.00878 | -78.61993 | 3945 ft | 168 kts | 227° |
| 2026-05-07 01:07 | 36.00042 | -78.62999 | 3755 ft | 167 kts | 226° |
| 2026-05-07 01:08 | 35.99217 | -78.63999 | 3526 ft | 162 kts | 227° |
| 2026-05-07 01:08 | 35.98455 | -78.64945 | 3318 ft | 149 kts | 227° |
| 2026-05-07 01:08 | 35.97731 | -78.65833 | 3104 ft | 144 kts | 226° |
| 2026-05-07 01:08 | 35.97039 | -78.66703 | 2942 ft | 145 kts | 226° |
| 2026-05-07 01:09 | 35.96325 | -78.67571 | 2727 ft | 144 kts | 225° |
| 2026-05-07 01:09 | 35.95634 | -78.68423 | 2534 ft | 134 kts | 227° |
| 2026-05-07 01:09 | 35.94996 | -78.69218 | 2378 ft | 129 kts | 225° |
| 2026-05-07 01:09 | 35.94356 | -78.70006 | 2200 ft | 132 kts | 227° |
| 2026-05-07 01:10 | 35.93725 | -78.70793 | 2020 ft | 130 kts | 227° |
| 2026-05-07 01:10 | 35.93085 | -78.71574 | 1848 ft | 132 kts | 225° |
| 2026-05-07 01:10 | 35.92435 | -78.72364 | 1670 ft | 131 kts | 226° |
| 2026-05-07 01:10 | 35.91790 | -78.73175 | 1496 ft | 134 kts | 226° |
| 2026-05-07 01:11 | 35.91127 | -78.73984 | 1340 ft | 136 kts | 224° |
| 2026-05-07 01:11 | 35.90437 | -78.74825 | 1160 ft | 140 kts | 224° |
| 2026-05-07 01:11 | 35.89734 | -78.75693 | 948 ft | 145 kts | 225° |
| 2026-05-07 01:11 | 35.89030 | -78.76560 | 760 ft | 144 kts | 225° |
| 2026-05-07 01:12 | 35.88333 | -78.77438 | 569 ft | 141 kts | 225° |
| 2026-05-07 01:12 | 35.87646 | -78.78277 | 428 ft | 134 kts | 224° |
| 2026-05-07 01:12 | 35.87169 | -78.78864 | 419 ft | 59 kts | 225° |
| 2026-05-07 01:12 | 35.87028 | -78.79048 | 413 ft | 9 kts | 248° |
| 2026-05-07 01:13 | 35.87044 | -78.79109 | 412 ft | 5 kts | 312° |
| 2026-05-07 01:13 | 35.87059 | -78.79130 | 411 ft | 1 kts | 313° |
| 2026-05-07 01:13 | 35.87065 | -78.79137 | 411 ft | 0 kts | 314° |
| 2026-05-07 01:13 | 35.87066 | -78.79137 | 411 ft | 0 kts | 326° |
| 2026-05-07 01:14 | 35.87068 | -78.79140 | 411 ft | 0 kts | 319° |
| 2026-05-07 01:14 | 35.87074 | -78.79144 | 411 ft | 2 kts | 340° |
| 2026-05-07 01:14 | 35.87093 | -78.79141 | 411 ft | 2 kts | 30° |
| 2026-05-07 01:14 | 35.87113 | -78.79123 | 412 ft | 7 kts | 38° |
| 2026-05-07 01:15 | 35.87145 | -78.79089 | 413 ft | 4 kts | 44° |
| 2026-05-07 01:15 | 35.87163 | -78.79066 | 414 ft | 3 kts | 46° |
| 2026-05-07 01:15 | 35.87200 | -78.79018 | 416 ft | 13 kts | 46° |
| 2026-05-07 01:15 | 35.87222 | -78.78991 | 417 ft | 5 kts | 45° |
| 2026-05-07 01:16 | 35.87290 | -78.78907 | 419 ft | 18 kts | 45° |
| 2026-05-07 01:16 | 35.87347 | -78.78835 | 421 ft | 6 kts | 45° |
| 2026-05-07 01:16 | 35.87362 | -78.78818 | 421 ft | 1 kts | 38° |
| 2026-05-07 01:16 | 35.87396 | -78.78824 | 421 ft | 8 kts | 326° |
| 2026-05-07 01:17 | 35.87432 | -78.78864 | 419 ft | 2 kts | 316° |
| 2026-05-07 01:17 | 35.87438 | -78.78871 | 419 ft | 0 kts | 316° |